Time;durP1;ratioP1;P1;durP2;ratioP2;P2;SDS_P1;SDS_P2;PMS_P1;PMS_P2;Temp;Humidity;BMP_temperature;BMP_pressure;BME280_temperature;BME280_humidity;BME280_pressure;Samples;Min_cycle;Max_cycle;Signal;HPM_P1;HPM_P2
2022/08/04 00:02:09;;;;;;;3.70;3.40;;;23.90;87.10;;;;;;5050560;28;20831;-63
2022/08/04 00:04:48;;;;;;;4.37;3.60;;;23.90;87.60;;;;;;5049926;28;20520;-63
2022/08/04 00:07:24;;;;;;;6.30;3.40;;;23.80;88.00;;;;;;5050382;28;20439;-63
2022/08/04 00:10:00;;;;;;;4.63;3.50;;;23.80;90.00;;;;;;5051116;28;20936;-63
2022/08/04 00:12:29;;;;;;;3.80;3.50;;;23.70;90.40;;;;;;5050665;28;20459;-63
2022/08/04 00:14:58;;;;;;;4.47;4.00;;;23.50;91.10;;;;;;5049618;28;20455;-63
2022/08/04 00:17:37;;;;;;;3.30;3.10;;;23.50;91.40;;;;;;5050985;28;20817;-63
2022/08/04 00:20:05;;;;;;;3.80;3.50;;;23.60;91.10;;;;;;5048756;28;20443;-63
2022/08/04 00:22:33;;;;;;;4.03;3.77;;;23.60;91.40;;;;;;5050855;28;20464;-63
2022/08/04 00:25:01;;;;;;;3.60;3.30;;;23.60;92.00;;;;;;5050269;28;20440;-63
2022/08/04 00:27:31;;;;;;;4.83;3.50;;;23.60;92.00;;;;;;5050067;28;20478;-62
2022/08/04 00:29:57;;;;;;;4.07;3.70;;;23.60;91.90;;;;;;5042471;28;20440;-63
2022/08/04 00:32:25;;;;;;;3.87;3.57;;;23.60;92.00;;;;;;5048882;28;20991;-62
2022/08/04 00:34:50;;;;;;;4.70;3.53;;;23.50;92.50;;;;;;5048487;28;20447;-63
2022/08/04 00:37:22;;;;;;;4.10;3.80;;;23.50;92.90;;;;;;5046370;28;20483;-63
2022/08/04 00:39:48;;;;;;;3.57;3.27;;;23.50;93.20;;;;;;5042629;28;20180;-63
2022/08/04 00:42:39;;;;;;;3.97;3.40;;;23.50;94.20;;;;;;5049332;28;20452;-63
2022/08/04 00:45:23;;;;;;;4.07;3.73;;;23.30;94.60;;;;;;5048417;28;20262;-63
2022/08/04 00:48:06;;;;;;;3.97;3.63;;;23.20;94.90;;;;;;5049871;28;20447;-63
2022/08/04 00:50:40;;;;;;;5.37;2.93;;;23.20;95.90;;;;;;5049041;28;20936;-63
2022/08/04 00:53:24;;;;;;;3.83;3.50;;;23.10;95.80;;;;;;5048541;28;20475;-62
2022/08/04 00:55:49;;;;;;;4.17;3.77;;;23.20;95.40;;;;;;5048417;28;20975;-63
2022/08/04 00:58:30;;;;;;;3.87;3.57;;;23.20;96.20;;;;;;5047688;28;20539;-62
2022/08/04 01:01:05;;;;;;;3.90;3.33;;;23.20;97.00;;;;;;5044782;28;20614;-63
2022/08/04 01:03:46;;;;;;;4.00;3.03;;;23.10;96.50;;;;;;5048719;28;20451;-64
2022/08/04 01:06:43;;;;;;;5.53;3.40;;;23.20;97.60;;;;;;5049251;28;20435;-64
2022/08/04 01:09:25;;;;;;;3.97;3.50;;;23.10;97.30;;;;;;5048460;28;20439;-64
2022/08/04 01:12:35;;;;;;;4.00;3.60;;;23.10;97.40;;;;;;5055007;28;21042;-64
2022/08/04 01:15:21;;;;;;;3.30;3.00;;;23.10;97.30;;;;;;5031100;28;20446;-64
2022/08/04 01:17:54;;;;;;;3.50;3.20;;;23.00;97.70;;;;;;5048191;28;20550;-64
2022/08/04 01:20:25;;;;;;;7.53;3.50;;;23.00;97.90;;;;;;5048546;28;20837;-64
2022/08/04 01:23:08;;;;;;;3.40;3.20;;;22.90;98.30;;;;;;5047706;28;20456;-62
2022/08/04 01:26:01;;;;;;;4.00;3.70;;;22.90;99.00;;;;;;5040102;28;20431;-64
2022/08/04 01:28:26;;;;;;;9.73;3.27;;;22.90;99.40;;;;;;5048272;28;20434;-63
2022/08/04 01:30:57;;;;;;;3.67;3.37;;;22.90;99.20;;;;;;5048791;28;20436;-63
2022/08/04 01:33:28;;;;;;;4.13;3.37;;;22.80;99.20;;;;;;5048960;28;20197;-64
2022/08/04 01:36:03;;;;;;;3.93;3.63;;;22.80;99.40;;;;;;5046119;28;20447;-62
2022/08/04 01:38:37;;;;;;;6.07;3.47;;;22.70;99.90;;;;;;5048149;28;20884;-64
2022/08/04 01:41:07;;;;;;;3.20;3.00;;;22.70;99.90;;;;;;5047992;28;20450;-63
2022/08/04 01:43:39;;;;;;;4.03;3.30;;;22.70;99.90;;;;;;5048105;28;20963;-63
2022/08/04 01:46:04;;;;;;;3.30;3.10;;;22.60;99.90;;;;;;5048668;28;20532;-63
2022/08/04 01:48:30;;;;;;;5.23;3.23;;;22.60;99.90;;;;;;5045739;28;20881;-61
2022/08/04 01:51:04;;;;;;;3.30;3.03;;;22.70;99.90;;;;;;5045761;28;20182;-63
2022/08/04 01:53:33;;;;;;;3.53;3.33;;;22.70;99.90;;;;;;5049217;28;21003;-63
2022/08/04 01:56:00;;;;;;;3.40;3.10;;;22.60;99.90;;;;;;5048911;28;20947;-64
2022/08/04 01:58:29;;;;;;;3.23;3.03;;;22.60;99.90;;;;;;5051644;28;20443;-64
2022/08/04 02:01:08;;;;;;;5.13;3.30;;;22.50;99.90;;;;;;5050264;28;20440;-63
2022/08/04 02:03:39;;;;;;;4.50;3.37;;;22.40;99.90;;;;;;5047636;28;20515;-63
2022/08/04 02:06:37;;;;;;;4.23;3.50;;;22.40;99.90;;;;;;5049110;28;20446;-63
2022/08/04 02:09:21;;;;;;;3.57;3.37;;;22.40;99.90;;;;;;5046851;28;20471;-63
2022/08/04 02:12:45;;;;;;;8.00;4.00;;;22.40;99.90;;;;;;5047768;28;20835;-62
2022/08/04 02:15:25;;;;;;;3.63;3.43;;;22.30;99.90;;;;;;5023299;28;20519;-62
2022/08/04 02:17:54;;;;;;;4.20;3.90;;;22.30;99.90;;;;;;5046826;28;20463;-63
2022/08/04 02:20:27;;;;;;;5.73;3.13;;;22.40;99.90;;;;;;5051941;28;20534;-62
2022/08/04 02:22:59;;;;;;;3.20;3.00;;;22.40;99.90;;;;;;5049010;28;20465;-63
2022/08/04 02:25:27;;;;;;;3.70;3.40;;;22.40;99.90;;;;;;5052655;28;20440;-64
2022/08/04 02:28:12;;;;;;;3.80;3.50;;;22.30;99.90;;;;;;5051760;28;20956;-63
2022/08/04 02:31:10;;;;;;;3.93;3.63;;;22.30;99.90;;;;;;5053755;28;20436;-64
2022/08/04 02:33:44;;;;;;;4.00;3.70;;;22.20;99.90;;;;;;5051421;28;20435;-63
2022/08/04 02:36:15;;;;;;;4.00;3.70;;;22.10;99.90;;;;;;5049332;28;20462;-64
2022/08/04 02:39:02;;;;;;;3.87;3.57;;;22.10;99.90;;;;;;5043356;28;20439;-63
2022/08/04 02:41:30;;;;;;;3.03;2.87;;;22.10;99.90;;;;;;5052093;28;21798;-61
2022/08/04 02:43:59;;;;;;;3.43;3.20;;;22.10;99.90;;;;;;5053098;28;20475;-63
2022/08/04 02:46:25;;;;;;;4.00;3.57;;;22.10;99.90;;;;;;5051869;28;20891;-63
2022/08/04 02:48:52;;;;;;;3.40;2.87;;;22.00;99.90;;;;;;5051828;28;20553;-62
2022/08/04 02:51:28;;;;;;;3.70;3.30;;;22.00;99.90;;;;;;5050840;28;20498;-63
2022/08/04 02:53:56;;;;;;;4.53;4.10;;;22.00;99.90;;;;;;5059461;28;20935;-62
2022/08/04 02:56:24;;;;;;;3.50;3.30;;;21.90;99.90;;;;;;5053298;28;20471;-63
2022/08/04 02:59:02;;;;;;;4.20;4.00;;;21.80;99.90;;;;;;5052020;28;20933;-64
2022/08/04 03:01:28;;;;;;;3.87;3.47;;;21.70;99.90;;;;;;5050798;28;20455;-63
2022/08/04 03:04:11;;;;;;;3.60;3.37;;;21.70;99.90;;;;;;5051490;28;20519;-63
2022/08/04 03:07:07;;;;;;;3.63;3.33;;;21.70;99.90;;;;;;5051188;28;20475;-62
2022/08/04 03:09:36;;;;;;;3.07;2.80;;;21.70;99.90;;;;;;5052390;28;20437;-65
2022/08/04 03:12:20;;;;;;;3.10;2.80;;;21.60;99.90;;;;;;5050243;28;20462;-65
2022/08/04 03:15:28;;;;;;;3.53;3.30;;;21.60;99.90;;;;;;5050525;28;20463;-66
2022/08/04 03:18:15;;;;;;;2.93;2.73;;;21.50;99.90;;;;;;4986901;28;20900;-66
2022/08/04 03:21:11;;;;;;;3.20;3.00;;;21.50;99.90;;;;;;5050083;28;20436;-65
2022/08/04 03:24:11;;;;;;;3.50;3.20;;;21.60;99.90;;;;;;5047239;28;20833;-63
2022/08/04 03:27:08;;;;;;;4.00;3.70;;;21.60;99.90;;;;;;5054892;28;20440;-62
2022/08/04 03:29:37;;;;;;;3.07;2.83;;;21.50;99.90;;;;;;5031553;28;20440;-64
2022/08/04 03:32:32;;;;;;;2.90;2.70;;;21.50;99.90;;;;;;5051717;28;20455;-64
2022/08/04 03:35:35;;;;;;;3.27;3.07;;;21.50;99.90;;;;;;5037906;28;20443;-63
2022/08/04 03:38:31;;;;;;;3.47;2.77;;;21.50;99.90;;;;;;5050895;28;20468;-63
2022/08/04 03:41:26;;;;;;;3.20;2.90;;;21.50;99.90;;;;;;5045593;28;20839;-62
2022/08/04 03:44:16;;;;;;;7.00;3.37;;;21.50;99.90;;;;;;5044930;28;20917;-63
2022/08/04 03:47:12;;;;;;;3.50;3.30;;;21.50;99.90;;;;;;5050191;28;20440;-64
2022/08/04 03:50:16;;;;;;;3.43;3.13;;;21.50;99.90;;;;;;5044272;28;20440;-64
2022/08/04 03:53:12;;;;;;;4.17;3.87;;;21.50;99.90;;;;;;5028534;22;20670;-70
2022/08/04 03:55:56;;;;;;;3.40;3.20;;;21.40;99.90;;;;;;5033740;28;20478;-69
2022/08/04 03:58:51;;;;;;;4.00;3.70;;;21.40;99.90;;;;;;5034950;28;20444;-69
2022/08/04 04:01:44;;;;;;;8.43;7.63;;;21.40;99.90;;;;;;5034452;28;20437;-69
2022/08/04 04:04:15;;;;;;;4.33;3.70;;;21.30;99.90;;;;;;5033605;28;20467;-70
2022/08/04 04:07:08;;;;;;;6.00;3.10;;;21.30;99.90;;;;;;5023339;28;20881;-69
2022/08/04 04:09:46;;;;;;;4.03;3.70;;;21.30;99.90;;;;;;5034128;28;20441;-69
2022/08/04 04:12:39;;;;;;;3.40;3.10;;;21.30;99.90;;;;;;5033641;28;20460;-70
2022/08/04 04:15:13;;;;;;;3.50;3.10;;;21.40;99.90;;;;;;5030465;28;20444;-69
2022/08/04 04:18:23;;;;;;;3.63;3.40;;;21.40;99.90;;;;;;5028691;28;20464;-70
2022/08/04 04:21:09;;;;;;;7.07;2.87;;;21.40;99.90;;;;;;4964446;28;20571;-70
2022/08/04 04:24:01;;;;;;;4.23;3.80;;;21.40;99.90;;;;;;4978704;28;20466;-70
2022/08/04 04:26:53;;;;;;;6.00;3.00;;;21.40;99.90;;;;;;4991159;28;21046;-69
2022/08/04 04:29:48;;;;;;;4.23;3.93;;;21.50;99.90;;;;;;4990950;28;20771;-69
2022/08/04 04:32:34;;;;;;;3.07;2.87;;;21.50;99.90;;;;;;4989774;28;20469;-70
2022/08/04 04:35:21;;;;;;;3.60;3.40;;;21.70;99.90;;;;;;4992271;28;20434;-70
2022/08/04 04:38:20;;;;;;;6.23;3.40;;;21.70;99.90;;;;;;4988721;28;20834;-70
2022/08/04 04:41:02;;;;;;;4.40;3.27;;;21.80;99.90;;;;;;4989283;28;20550;-69
2022/08/04 04:43:49;;;;;;;4.77;3.43;;;21.90;99.90;;;;;;4987754;28;20497;-69
2022/08/04 04:46:37;;;;;;;5.93;4.43;;;22.00;99.90;;;;;;4993153;28;20434;-70
2022/08/04 04:49:27;;;;;;;5.70;5.10;;;22.00;99.90;;;;;;4988563;28;20430;-70
2022/08/04 04:52:12;;;;;;;4.57;4.20;;;22.10;99.90;;;;;;4987597;28;20446;-70
2022/08/04 04:54:44;;;;;;;4.73;3.33;;;22.30;99.90;;;;;;4988942;28;20943;-70
2022/08/04 04:57:22;;;;;;;2.97;2.77;;;22.40;99.90;;;;;;4991252;28;20926;-69
2022/08/04 05:00:01;;;;;;;10.40;3.50;;;22.60;99.90;;;;;;4990124;28;20470;-70
2022/08/04 05:03:04;;;;;;;4.33;3.40;;;22.70;99.90;;;;;;4989875;28;20493;-70
2022/08/04 05:05:48;;;;;;;4.40;4.00;;;22.90;99.90;;;;;;4988770;28;20852;-70
2022/08/04 05:08:33;;;;;;;3.97;3.30;;;23.00;99.90;;;;;;4988822;28;20438;-69
2022/08/04 05:11:24;;;;;;;3.73;3.43;;;23.10;99.90;;;;;;4989714;28;20438;-70
2022/08/04 05:14:04;;;;;;;3.60;3.03;;;23.30;99.90;;;;;;4989044;28;20457;-70
2022/08/04 05:16:36;;;;;;;4.20;3.83;;;23.40;99.90;;;;;;4990988;28;20541;-70
2022/08/04 05:19:31;;;;;;;4.70;4.00;;;23.60;99.90;;;;;;4989346;28;20439;-70
2022/08/04 05:22:09;;;;;;;5.10;3.77;;;23.70;99.90;;;;;;4989564;28;20955;-70
2022/08/04 05:24:39;;;;;;;3.90;3.60;;;23.90;99.90;;;;;;4989989;28;20802;-70
2022/08/04 05:27:19;;;;;;;4.20;3.80;;;24.00;99.90;;;;;;4991416;28;20470;-70
2022/08/04 05:29:54;;;;;;;4.57;4.00;;;24.20;99.90;;;;;;4989695;28;20438;-70
2022/08/04 05:32:27;;;;;;;4.83;4.43;;;24.40;99.90;;;;;;4987834;28;20524;-70
2022/08/04 05:35:11;;;;;;;4.80;4.40;;;24.50;99.90;;;;;;4990297;28;20438;-70
2022/08/04 05:37:40;;;;;;;3.70;3.40;;;24.60;99.90;;;;;;4989230;28;20839;-70
2022/08/04 05:40:07;;;;;;;3.77;3.47;;;24.80;99.90;;;;;;4989659;28;20806;-70
2022/08/04 05:42:37;;;;;;;6.07;3.37;;;25.00;99.90;;;;;;4988454;28;20446;-70
2022/08/04 05:45:05;;;;;;;3.97;3.30;;;25.00;99.90;;;;;;4986268;28;20436;-70
2022/08/04 05:47:32;;;;;;;5.13;3.20;;;25.00;99.80;;;;;;4984622;28;20817;-70
2022/08/04 05:49:58;;;;;;;3.33;3.03;;;25.00;99.10;;;;;;4989710;28;20438;-70
2022/08/04 05:52:25;;;;;;;4.10;2.90;;;25.10;99.20;;;;;;4989601;28;20556;-70
2022/08/04 05:54:51;;;;;;;4.80;3.30;;;25.10;98.60;;;;;;4994379;28;20435;-70
2022/08/04 05:57:18;;;;;;;3.93;3.60;;;25.20;98.50;;;;;;4993128;28;20471;-70
2022/08/04 05:59:47;;;;;;;4.60;3.07;;;25.30;98.40;;;;;;4968966;28;20810;-66
2022/08/04 06:02:16;;;;;;;5.97;3.77;;;25.40;97.80;;;;;;4970658;28;20464;-65
2022/08/04 06:04:46;;;;;;;4.07;3.63;;;25.50;97.60;;;;;;4989896;28;20536;-65
2022/08/04 06:07:13;;;;;;;5.03;3.20;;;25.60;97.60;;;;;;4990375;28;20443;-65
2022/08/04 06:09:39;;;;;;;12.87;4.07;;;25.80;97.00;;;;;;4987578;28;20509;-65
2022/08/04 06:12:09;;;;;;;6.23;4.43;;;26.00;96.70;;;;;;4989658;28;20446;-65
2022/08/04 06:14:40;;;;;;;4.37;3.90;;;26.10;96.40;;;;;;4994582;28;20769;-65
2022/08/04 06:17:08;;;;;;;4.17;3.87;;;26.10;95.50;;;;;;4993711;28;20454;-65
2022/08/04 06:19:35;;;;;;;3.30;3.00;;;26.30;95.70;;;;;;4990652;28;20967;-65
2022/08/04 06:22:04;;;;;;;4.90;3.67;;;26.40;95.50;;;;;;4991547;28;20450;-65
2022/08/04 06:24:31;;;;;;;6.60;3.20;;;26.70;95.00;;;;;;4992341;28;20449;-65
2022/08/04 06:26:57;;;;;;;4.40;4.00;;;26.80;94.50;;;;;;4983449;28;20533;-65
2022/08/04 06:29:39;;;;;;;8.47;3.90;;;27.00;94.10;;;;;;4982953;28;20447;-65
2022/08/04 06:32:12;;;;;;;3.87;3.50;;;27.10;93.50;;;;;;4995613;28;20446;-65
2022/08/04 06:34:40;;;;;;;4.50;3.10;;;27.30;93.10;;;;;;4985298;28;20449;-65
2022/08/04 06:37:08;;;;;;;4.07;3.63;;;27.40;93.30;;;;;;4992288;28;20467;-65
2022/08/04 06:39:34;;;;;;;4.27;3.60;;;27.60;92.80;;;;;;4988936;28;20557;-65
2022/08/04 06:42:01;;;;;;;7.33;4.00;;;27.90;92.40;;;;;;4991222;28;20962;-65
2022/08/04 06:44:28;;;;;;;6.53;4.30;;;28.30;91.90;;;;;;4990929;28;20826;-65
2022/08/04 06:46:54;;;;;;;4.90;4.40;;;28.50;91.00;;;;;;4982683;28;20454;-65
2022/08/04 06:49:21;;;;;;;7.70;3.57;;;28.80;90.50;;;;;;4986044;28;20517;-65
2022/08/04 06:51:48;;;;;;;8.13;3.53;;;29.00;90.20;;;;;;4993841;28;20438;-64
2022/08/04 06:54:14;;;;;;;3.80;3.50;;;29.20;89.70;;;;;;4986059;28;20509;-64
2022/08/04 06:56:41;;;;;;;3.87;3.17;;;29.10;84.80;;;;;;4993470;28;20837;-64
2022/08/04 06:59:09;;;;;;;5.13;3.60;;;29.30;86.40;;;;;;4989734;28;20453;-65
2022/08/04 07:01:36;;;;;;;3.17;2.97;;;29.30;86.30;;;;;;4989877;28;20882;-65
2022/08/04 07:04:03;;;;;;;3.10;2.90;;;29.60;81.00;;;;;;4985795;28;20801;-65
2022/08/04 07:06:28;;;;;;;3.00;2.80;;;29.60;77.10;;;;;;4992655;28;20446;-65
2022/08/04 07:08:55;;;;;;;3.03;2.83;;;29.40;76.40;;;;;;4986374;28;20439;-65
2022/08/04 07:11:21;;;;;;;3.47;3.20;;;29.30;76.10;;;;;;4991731;28;20251;-65
2022/08/04 07:13:48;;;;;;;3.30;2.83;;;29.40;75.50;;;;;;4984876;28;20916;-65
2022/08/04 07:16:14;;;;;;;4.10;3.80;;;29.50;75.10;;;;;;4991097;28;20183;-66
2022/08/04 07:18:40;;;;;;;3.13;2.93;;;29.80;75.30;;;;;;4989484;28;20800;-65
2022/08/04 07:21:06;;;;;;;2.90;2.70;;;30.00;73.60;;;;;;4990123;28;20446;-65
2022/08/04 07:23:32;;;;;;;3.10;2.90;;;30.20;72.90;;;;;;4991750;28;20196;-65
2022/08/04 07:25:57;;;;;;;2.47;2.37;;;30.20;72.40;;;;;;4990023;28;20449;-65
2022/08/04 07:28:26;;;;;;;3.63;3.10;;;30.40;72.40;;;;;;4986973;28;20310;-65
2022/08/04 07:30:53;;;;;;;4.77;3.50;;;30.60;72.40;;;;;;4992376;28;20191;-65
2022/08/04 07:33:19;;;;;;;2.87;2.73;;;30.80;70.90;;;;;;4988656;28;20462;-65
2022/08/04 07:35:51;;;;;;;4.53;4.13;;;31.20;70.40;;;;;;4990899;28;20443;-65
2022/08/04 07:38:17;;;;;;;3.43;3.23;;;31.40;69.40;;;;;;4988843;28;20469;-65
2022/08/04 07:40:44;;;;;;;2.97;2.77;;;31.50;68.60;;;;;;4988516;28;20438;-65
2022/08/04 07:43:09;;;;;;;3.03;2.83;;;31.50;67.20;;;;;;4993433;28;20187;-65
2022/08/04 07:45:35;;;;;;;3.77;3.13;;;31.60;67.00;;;;;;4987040;28;20965;-65
2022/08/04 07:48:05;;;;;;;5.20;4.43;;;31.70;66.90;;;;;;4989824;28;20807;-65
2022/08/04 07:50:32;;;;;;;3.67;3.33;;;31.50;67.20;;;;;;4988088;28;20443;-64
2022/08/04 07:52:58;;;;;;;3.47;3.07;;;31.70;67.00;;;;;;4990085;28;20971;-64
2022/08/04 07:55:24;;;;;;;3.30;3.10;;;32.00;65.70;;;;;;4995238;28;20443;-65
2022/08/04 07:57:50;;;;;;;4.73;3.33;;;32.20;64.70;;;;;;4987518;28;20462;-64
2022/08/04 08:00:16;;;;;;;3.47;3.23;;;32.70;64.00;;;;;;4986345;28;20959;-64
2022/08/04 08:02:44;;;;;;;3.20;2.93;;;32.90;63.00;;;;;;4989570;28;20257;-64
2022/08/04 08:05:13;;;;;;;4.53;3.13;;;32.30;62.20;;;;;;4990689;28;20474;-65
2022/08/04 08:07:39;;;;;;;3.33;3.03;;;31.90;63.00;;;;;;4990992;28;20573;-65
2022/08/04 08:10:11;;;;;;;3.43;2.90;;;32.20;62.30;;;;;;4985780;28;20885;-64
2022/08/04 08:12:37;;;;;;;4.27;2.93;;;32.80;61.60;;;;;;4988881;28;20294;-64
2022/08/04 08:15:05;;;;;;;4.17;2.90;;;33.20;60.60;;;;;;4991325;28;20447;-64
2022/08/04 08:17:30;;;;;;;5.23;4.17;;;33.10;60.10;;;;;;4988619;28;20566;-65
2022/08/04 08:19:56;;;;;;;5.17;3.20;;;33.30;59.40;;;;;;4986173;28;20518;-64
2022/08/04 08:22:21;;;;;;;3.50;2.83;;;33.40;58.60;;;;;;4990473;28;20214;-64
2022/08/04 08:24:47;;;;;;;2.57;2.47;;;33.40;58.50;;;;;;4988584;28;20198;-65
2022/08/04 08:27:13;;;;;;;3.03;2.83;;;33.60;58.20;;;;;;4990070;28;20178;-65
2022/08/04 08:29:39;;;;;;;2.97;2.77;;;33.50;58.00;;;;;;4980876;28;20187;-65
2022/08/04 08:32:12;;;;;;;3.60;3.40;;;33.60;58.10;;;;;;4990579;28;20179;-65
2022/08/04 08:34:38;;;;;;;2.90;2.70;;;33.60;57.30;;;;;;4986657;28;20941;-65
2022/08/04 08:37:23;;;;;;;3.37;3.10;;;33.70;57.30;;;;;;4990139;28;20465;-65
2022/08/04 08:39:58;;;;;;;3.50;3.30;;;34.30;56.60;;;;;;4987366;28;21012;-64
2022/08/04 08:42:35;;;;;;;2.50;2.40;;;34.50;55.60;;;;;;4987181;28;20454;-65
2022/08/04 08:45:19;;;;;;;3.53;3.00;;;34.30;55.20;;;;;;4985306;28;20526;-65
2022/08/04 08:48:22;;;;;;;3.27;3.03;;;34.30;55.50;;;;;;4991085;28;20517;-65
2022/08/04 08:51:18;;;;;;;3.60;3.00;;;34.60;55.30;;;;;;4989690;28;20478;-65
2022/08/04 08:53:56;;;;;;;3.43;3.23;;;34.80;55.40;;;;;;4985189;28;20838;-65
2022/08/04 08:56:34;;;;;;;3.40;3.20;;;35.20;54.30;;;;;;4989235;28;20438;-65
2022/08/04 08:59:31;;;;;;;3.93;3.20;;;35.00;54.20;;;;;;4984597;28;20435;-66
2022/08/04 09:02:35;;;;;;;2.97;2.80;;;35.40;54.10;;;;;;4988277;28;20439;-65
2022/08/04 09:05:31;;;;;;;3.57;3.37;;;36.30;52.80;;;;;;4986700;28;20431;-65
2022/08/04 09:08:08;;;;;;;3.13;2.93;;;35.90;52.40;;;;;;4984980;28;20438;-66
2022/08/04 09:10:47;;;;;;;3.10;2.90;;;35.60;52.50;;;;;;4986887;28;20430;-66
2022/08/04 09:13:20;;;;;;;3.00;2.80;;;35.70;52.80;;;;;;4986049;28;20484;-66
2022/08/04 09:16:04;;;;;;;2.87;2.67;;;36.00;52.40;;;;;;4983046;28;20497;-66
2022/08/04 09:18:29;;;;;;;2.93;2.80;;;36.10;51.80;;;;;;4984332;28;20501;-66
2022/08/04 09:21:23;;;;;;;3.43;3.00;;;35.70;51.80;;;;;;4985919;28;20435;-65
2022/08/04 09:23:59;;;;;;;3.33;2.90;;;36.10;51.60;;;;;;4985680;28;20694;-65
2022/08/04 09:26:49;;;;;;;4.30;3.20;;;36.70;51.10;;;;;;4989088;28;20450;-65
2022/08/04 09:29:40;;;;;;;3.57;3.10;;;37.40;50.20;;;;;;4983826;28;20423;-66
2022/08/04 09:32:22;;;;;;;3.77;3.40;;;37.90;49.30;;;;;;4989235;28;20785;-66
2022/08/04 09:34:55;;;;;;;3.20;3.00;;;37.60;48.00;;;;;;4981655;28;20426;-66
2022/08/04 09:37:37;;;;;;;3.60;3.40;;;37.70;48.40;;;;;;4985794;28;20462;-66
2022/08/04 09:40:14;;;;;;;3.73;3.37;;;38.50;47.70;;;;;;4984631;28;20459;-65
2022/08/04 09:42:57;;;;;;;3.30;3.00;;;38.80;46.80;;;;;;4986183;28;20564;-63
2022/08/04 09:45:44;;;;;;;3.47;3.30;;;39.50;46.20;;;;;;4986908;28;20438;-63
2022/08/04 09:48:30;;;;;;;3.93;3.47;;;39.20;45.10;;;;;;4989520;28;20504;-63
2022/08/04 09:50:58;;;;;;;3.60;3.30;;;39.70;43.70;;;;;;4985222;28;20446;-63
2022/08/04 09:53:40;;;;;;;3.93;3.63;;;39.70;42.60;;;;;;5020073;23;20494;-61
2022/08/04 09:56:08;;;;;;;2.57;2.47;;;40.30;42.40;;;;;;5003913;28;20473;-62
2022/08/04 09:58:52;;;;;;;3.63;3.20;;;40.10;40.70;;;;;;5004857;28;20469;-62
2022/08/04 10:01:21;;;;;;;3.67;3.47;;;40.20;41.80;;;;;;5006768;28;20487;-62
2022/08/04 10:03:54;;;;;;;4.20;3.13;;;40.50;40.10;;;;;;4994712;28;20508;-62
2022/08/04 10:07:07;;;;;;;3.30;3.10;;;41.70;40.10;;;;;;4987374;28;20439;-62
2022/08/04 10:09:53;;;;;;;4.30;3.63;;;42.70;39.20;;;;;;4987262;28;20935;-63
2022/08/04 10:12:27;;;;;;;3.10;2.90;;;42.90;37.40;;;;;;4985238;28;20465;-62
2022/08/04 10:15:15;;;;;;;3.50;2.97;;;43.40;36.40;;;;;;4986045;28;20430;-62
2022/08/04 10:17:55;;;;;;;2.97;2.70;;;42.60;35.60;;;;;;4990126;28;20470;-62
2022/08/04 10:20:32;;;;;;;3.57;3.27;;;42.30;35.90;;;;;;4984399;28;20430;-62
2022/08/04 10:23:21;;;;;;;3.43;3.33;;;42.90;34.90;;;;;;4984187;28;20454;-63
2022/08/04 10:26:10;;;;;;;3.30;3.10;;;42.50;34.10;;;;;;4980811;28;20474;-62
2022/08/04 10:28:43;;;;;;;2.83;2.63;;;42.60;33.70;;;;;;4980439;28;20443;-63
2022/08/04 10:31:16;;;;;;;2.87;2.70;;;44.40;32.90;;;;;;4996565;28;20465;-62
2022/08/04 10:33:49;;;;;;;3.60;3.40;;;45.40;32.20;;;;;;4987610;28;20454;-63
2022/08/04 10:36:19;;;;;;;2.73;2.63;;;44.80;31.90;;;;;;4991709;28;20481;-63
2022/08/04 10:38:55;;;;;;;3.57;3.30;;;45.90;31.30;;;;;;4986402;28;20844;-64
2022/08/04 10:41:41;;;;;;;6.83;3.30;;;47.10;30.90;;;;;;5001127;28;20437;-64
2022/08/04 10:44:23;;;;;;;3.60;3.50;;;48.10;29.80;;;;;;4995766;28;20461;-64
2022/08/04 10:46:58;;;;;;;3.57;3.40;;;48.60;29.00;;;;;;4999663;28;20445;-64
2022/08/04 10:49:38;;;;;;;4.07;3.77;;;48.80;28.80;;;;;;4992838;28;20492;-64
2022/08/04 10:52:15;;;;;;;4.90;4.10;;;49.40;28.50;;;;;;4996709;28;20439;-64
2022/08/04 10:54:50;;;;;;;4.40;3.43;;;49.30;28.00;;;;;;4993774;28;20438;-64
2022/08/04 10:57:42;;;;;;;3.80;3.60;;;46.30;28.30;;;;;;4991228;28;20483;-62
2022/08/04 11:00:18;;;;;;;4.07;3.87;;;44.80;29.20;;;;;;4981966;28;20442;-63
2022/08/04 11:02:51;;;;;;;3.57;3.37;;;46.60;29.10;;;;;;4992385;28;20485;-63
2022/08/04 11:05:51;;;;;;;3.60;3.40;;;47.80;28.10;;;;;;4990282;28;20525;-63
2022/08/04 11:08:23;;;;;;;4.00;3.80;;;49.00;27.40;;;;;;4990754;28;20438;-63
2022/08/04 11:11:20;;;;;;;4.10;3.90;;;49.90;26.90;;;;;;4994796;28;20464;-63
2022/08/04 11:13:56;;;;;;;4.50;4.07;;;49.60;27.00;;;;;;4987546;28;20457;-61
2022/08/04 11:16:26;;;;;;;5.20;4.03;;;50.00;26.60;;;;;;4997907;28;20433;-62
2022/08/04 11:19:15;;;;;;;3.93;3.73;;;49.40;26.40;;;;;;4997451;28;20513;-62
2022/08/04 11:21:48;;;;;;;4.23;4.03;;;49.00;26.30;;;;;;4997684;28;20450;-63
2022/08/04 11:24:33;;;;;;;3.60;3.40;;;47.90;26.10;;;;;;4995364;28;20478;-62
2022/08/04 11:27:02;;;;;;;2.63;2.53;;;45.30;27.50;;;;;;4996208;28;20450;-62
2022/08/04 11:29:41;;;;;;;3.70;3.50;;;44.80;27.80;;;;;;4987487;28;20469;-62
2022/08/04 11:32:30;;;;;;;3.83;3.53;;;46.60;27.50;;;;;;4992911;28;20947;-63
2022/08/04 11:35:02;;;;;;;4.90;3.87;;;46.20;27.00;;;;;;4986761;28;20534;-63
2022/08/04 11:37:41;;;;;;;4.03;3.73;;;47.40;27.20;;;;;;4983022;28;20463;-63
2022/08/04 11:40:22;;;;;;;3.43;3.23;;;49.20;25.90;;;;;;4984175;28;20434;-62
2022/08/04 11:42:59;;;;;;;3.17;3.07;;;48.10;25.60;;;;;;4988685;28;20900;-62
2022/08/04 11:45:32;;;;;;;4.07;3.87;;;46.90;26.20;;;;;;4988923;28;20449;-62
2022/08/04 11:48:10;;;;;;;3.13;3.03;;;46.20;26.30;;;;;;4989774;28;20473;-61
2022/08/04 11:50:51;;;;;;;3.33;3.20;;;45.60;27.20;;;;;;4989284;28;20665;-61
2022/08/04 11:53:20;;;;;;;3.83;3.67;;;45.50;27.20;;;;;;4992601;28;20478;-62
2022/08/04 11:55:51;;;;;;;3.83;3.57;;;44.80;27.60;;;;;;4992896;28;20496;-62
2022/08/04 11:58:17;;;;;;;3.47;3.17;;;44.30;28.00;;;;;;4985659;28;20469;-62
2022/08/04 12:01:11;;;;;;;3.70;3.40;;;43.50;28.20;;;;;;4992694;28;21024;-61
2022/08/04 12:03:49;;;;;;;3.30;3.10;;;42.60;29.60;;;;;;4993085;28;20458;-62
2022/08/04 12:06:22;;;;;;;3.53;3.33;;;43.80;28.90;;;;;;4991894;28;20522;-61
2022/08/04 12:09:02;;;;;;;6.03;4.03;;;43.90;28.70;;;;;;4988962;28;21017;-62
2022/08/04 12:11:34;;;;;;;3.57;3.27;;;43.20;29.10;;;;;;4987864;28;20439;-62
2022/08/04 12:14:32;;;;;;;3.60;3.30;;;42.10;29.20;;;;;;4990799;28;20474;-62
2022/08/04 12:17:03;;;;;;;4.00;3.70;;;41.70;30.00;;;;;;4986368;28;20467;-62
2022/08/04 12:19:38;;;;;;;3.83;3.63;;;43.40;29.20;;;;;;4990412;28;20438;-62
2022/08/04 12:22:11;;;;;;;3.70;3.40;;;43.50;29.00;;;;;;4993870;28;20489;-62
2022/08/04 12:24:43;;;;;;;3.80;3.40;;;43.10;29.30;;;;;;4990066;28;20436;-62
2022/08/04 12:27:19;;;;;;;5.70;3.10;;;42.90;29.40;;;;;;4989699;28;20439;-62
2022/08/04 12:29:45;;;;;;;4.63;3.80;;;42.60;29.70;;;;;;4987793;28;20438;-62
2022/08/04 12:32:18;;;;;;;4.03;3.30;;;41.80;29.70;;;;;;4990769;28;21002;-62
2022/08/04 12:35:06;;;;;;;3.63;3.43;;;41.20;30.10;;;;;;4989054;28;20522;-62
2022/08/04 12:37:45;;;;;;;3.90;3.53;;;42.40;29.60;;;;;;4991844;28;20524;-61
2022/08/04 12:40:19;;;;;;;3.43;3.23;;;42.30;29.30;;;;;;4986441;28;20795;-62
2022/08/04 12:43:10;;;;;;;4.50;4.10;;;41.40;30.00;;;;;;4991332;28;20451;-62
2022/08/04 12:45:43;;;;;;;3.43;3.00;;;40.50;30.10;;;;;;4963852;28;21037;-62
2022/08/04 12:48:09;;;;;;;3.50;3.30;;;40.50;30.60;;;;;;4989275;28;20963;-61
2022/08/04 12:50:35;;;;;;;3.33;3.13;;;42.40;29.20;;;;;;4982296;28;20653;-62
2022/08/04 12:53:11;;;;;;;4.40;3.80;;;44.60;28.60;;;;;;4987432;28;20250;-62
2022/08/04 12:55:43;;;;;;;4.17;3.97;;;48.00;27.20;;;;;;4988630;28;20187;-62
2022/08/04 12:58:17;;;;;;;6.93;3.50;;;49.50;26.40;;;;;;4994025;28;20478;-61
2022/08/04 13:00:50;;;;;;;3.57;3.30;;;51.30;25.80;;;;;;4990273;28;20435;-63
2022/08/04 13:03:16;;;;;;;4.83;4.60;;;52.60;25.00;;;;;;4981421;28;20988;-62
2022/08/04 13:05:44;;;;;;;5.30;4.80;;;53.20;24.30;;;;;;4989653;28;20492;-62
2022/08/04 13:08:12;;;;;;;4.83;4.53;;;53.00;23.60;;;;;;4988724;28;20446;-62
2022/08/04 13:10:44;;;;;;;5.37;4.80;;;53.50;24.00;;;;;;4987625;28;20433;-63
2022/08/04 13:13:20;;;;;;;5.50;5.13;;;54.40;23.30;;;;;;4992288;28;20450;-63
2022/08/04 13:16:27;;;;;;;4.90;4.70;;;52.90;23.60;;;;;;4983835;28;20437;-62
2022/08/04 13:18:52;;;;;;;4.63;4.43;;;54.20;23.30;;;;;;4998735;28;20442;-63
2022/08/04 13:21:20;;;;;;;5.13;4.73;;;54.10;23.10;;;;;;4989545;28;20857;-62
2022/08/04 13:23:47;;;;;;;5.03;4.70;;;51.80;23.60;;;;;;4995645;28;20566;-63
2022/08/04 13:26:17;;;;;;;4.07;3.87;;;50.70;24.10;;;;;;4989641;28;20449;-61
2022/08/04 13:28:46;;;;;;;4.50;4.20;;;49.70;24.90;;;;;;4984144;28;20441;-62
2022/08/04 13:31:21;;;;;;;4.50;4.30;;;48.70;24.80;;;;;;4990001;28;20561;-62
2022/08/04 13:33:50;;;;;;;4.47;4.07;;;47.50;25.00;;;;;;4984346;28;20465;-63
2022/08/04 13:36:17;;;;;;;3.37;3.17;;;46.90;25.40;;;;;;4990312;28;20538;-62
2022/08/04 13:38:50;;;;;;;4.20;4.00;;;47.10;25.40;;;;;;4990985;28;20979;-64